Time;durP1;ratioP1;P1;durP2;ratioP2;P2;SDS_P1;SDS_P2;PMS_P1;PMS_P2;Temp;Humidity;BMP_temperature;BMP_pressure;BME280_temperature;BME280_humidity;BME280_pressure;Samples;Min_cycle;Max_cycle;Signal;HPM_P1;HPM_P2
2023/04/20 00:02:14;;;;;;;4.55;2.45;;;;;;;-146.27;41.81;83862.94;5086819;28;20062;-64
2023/04/20 00:04:39;;;;;;;5.03;2.22;;;;;;;-146.27;42.15;83826.75;5085165;28;20032;-64
2023/04/20 00:07:05;;;;;;;12.18;2.88;;;;;;;-146.27;42.78;83862.94;5088808;28;20070;-65
2023/04/20 00:09:30;;;;;;;4.32;2.03;;;;;;;-146.27;42.39;83883.03;5089105;28;20067;-64
2023/04/20 00:11:56;;;;;;;2.97;1.98;;;;;;;-146.27;43.17;83881.03;5088054;28;20020;-64
2023/04/20 00:14:21;;;;;;;5.40;2.13;;;;;;;-146.27;42.75;83870.97;5090058;28;20468;-65
2023/04/20 00:16:47;;;;;;;6.35;2.28;;;;;;;-146.27;42.39;83862.94;5084735;28;20027;-65
2023/04/20 00:19:12;;;;;;;3.20;2.08;;;;;;;-146.27;41.80;83808.69;5081652;28;20055;-65
2023/04/20 00:21:38;;;;;;;7.18;1.90;;;;;;;-146.27;42.19;83901.13;5084327;28;20032;-64
2023/04/20 00:24:03;;;;;;;4.82;2.40;;;;;;;-146.27;42.47;83911.16;5089347;28;20027;-64
2023/04/20 00:26:29;;;;;;;3.40;2.00;;;;;;;-146.27;42.96;83875.00;5088564;28;20039;-64
2023/04/20 00:28:54;;;;;;;4.28;2.25;;;;;;;-146.27;42.10;83891.06;5093200;28;20012;-65
2023/04/20 00:31:20;;;;;;;1.95;1.63;;;;;;;-146.27;42.82;83901.13;5089008;28;20098;-65
2023/04/20 00:33:46;;;;;;;4.47;1.70;;;;;;;-146.27;42.67;83903.13;5091741;28;20032;-64
2023/04/20 00:36:12;;;;;;;3.13;2.05;;;;;;;-146.27;42.47;83887.06;5092592;28;20093;-65
2023/04/20 00:38:37;;;;;;;3.00;1.52;;;;;;;-146.27;42.52;83879.00;5093572;28;20028;-64
2023/04/20 00:41:02;;;;;;;6.22;2.10;;;;;;;-146.27;42.94;83921.22;5081507;28;20088;-65
2023/04/20 00:43:28;;;;;;;3.75;2.00;;;;;;;-146.27;43.21;83933.28;5089968;28;20581;-63
2023/04/20 00:45:53;;;;;;;2.53;1.95;;;;;;;-146.27;44.11;83881.03;5089915;28;20024;-65
2023/04/20 00:48:19;;;;;;;2.85;1.80;;;;;;;-146.27;43.41;83915.19;5089581;28;20512;-65
2023/04/20 00:50:45;;;;;;;2.67;1.85;;;;;;;-146.27;43.73;83931.25;5082723;28;20106;-64
2023/04/20 00:53:12;;;;;;;6.10;1.88;;;;;;;-146.27;44.04;83925.22;5093663;28;20115;-64
2023/04/20 00:55:38;;;;;;;4.75;2.90;;;;;;;-146.27;46.24;83927.25;5085301;28;20475;-64
2023/04/20 00:58:04;;;;;;;8.25;2.22;;;;;;;-146.27;46.18;83915.19;5091928;28;20038;-64
2023/04/20 01:00:30;;;;;;;3.78;2.17;;;;;;;-146.27;44.71;83955.38;5090990;28;20024;-63
2023/04/20 01:02:55;;;;;;;4.40;1.98;;;;;;;-146.27;45.36;83995.56;5084154;28;20433;-63
2023/04/20 01:05:21;;;;;;;8.07;2.30;;;;;;;-146.27;46.60;83975.47;5088045;28;20192;-65
2023/04/20 01:07:47;;;;;;;9.07;2.30;;;;;;;-146.27;47.13;83995.56;5093177;28;20050;-63
2023/04/20 01:10:13;;;;;;;3.95;2.30;;;;;;;-146.27;45.42;83973.47;5093398;28;20499;-64
2023/04/20 01:12:39;;;;;;;4.90;2.40;;;;;;;-146.27;47.34;83967.44;5079579;28;20049;-64
2023/04/20 01:15:05;;;;;;;5.82;2.33;;;;;;;-146.27;46.38;83955.38;5088845;28;20028;-64
2023/04/20 01:17:36;;;;;;;5.55;2.00;;;;;;;-146.27;47.77;83993.56;5079984;28;20036;-64
2023/04/20 01:20:02;;;;;;;9.10;1.98;;;;;;;-146.27;47.29;83971.47;5083309;28;20028;-64
2023/04/20 01:22:28;;;;;;;3.72;2.15;;;;;;;-146.27;50.61;83995.56;5080564;28;20043;-65
2023/04/20 01:24:53;;;;;;;4.53;2.17;;;;;;;-146.27;48.50;83955.38;5092786;28;20372;-64
2023/04/20 01:27:19;;;;;;;6.30;2.45;;;;;;;-146.27;50.24;84027.72;5092388;28;20016;-64
2023/04/20 01:29:45;;;;;;;3.42;2.00;;;;;;;-146.27;49.78;84007.63;5091789;28;20544;-64
2023/04/20 01:32:11;;;;;;;3.33;2.40;;;;;;;-146.27;51.81;84039.78;5087915;28;20032;-64
2023/04/20 01:34:37;;;;;;;5.80;2.00;;;;;;;-146.27;52.96;84055.84;5084512;28;20030;-65
2023/04/20 01:37:06;;;;;;;4.35;2.35;;;;;;;-146.27;52.61;84033.75;5092896;28;20032;-64
2023/04/20 01:39:35;;;;;;;6.18;2.25;;;;;;;-146.27;54.84;84027.72;5085834;28;20515;-64
2023/04/20 01:42:01;;;;;;;3.53;2.08;;;;;;;-146.27;53.94;84035.75;5092070;28;20502;-64
2023/04/20 01:44:26;;;;;;;5.63;2.35;;;;;;;-146.27;54.92;84023.69;5091151;28;20024;-64
2023/04/20 01:46:51;;;;;;;3.22;2.33;;;;;;;-146.27;54.66;84057.88;5088465;28;20368;-65
2023/04/20 01:49:17;;;;;;;4.95;2.63;;;;;;;-146.27;55.90;84071.94;5088691;28;20055;-65
2023/04/20 01:51:42;;;;;;;6.05;3.00;;;;;;;-146.27;57.66;84061.88;5084605;28;20032;-65
2023/04/20 01:54:07;;;;;;;5.60;2.65;;;;;;;-146.27;58.83;84071.94;5089452;28;20103;-65
2023/04/20 01:56:33;;;;;;;8.38;3.45;;;;;;;-146.27;58.60;84092.03;5088059;28;20024;-64
2023/04/20 01:58:58;;;;;;;3.42;2.22;;;;;;;-146.27;59.98;84059.88;5091405;28;20016;-64
2023/04/20 02:01:23;;;;;;;5.40;3.13;;;;;;;-146.27;60.48;84059.88;5083163;28;20020;-64
2023/04/20 02:03:49;;;;;;;8.80;2.80;;;;;;;-146.27;61.17;84071.94;5086524;28;20028;-65
2023/04/20 02:06:14;;;;;;;4.20;3.10;;;;;;;-146.27;63.17;84090.03;5082956;28;20020;-64
2023/04/20 02:08:40;;;;;;;4.20;2.92;;;;;;;-146.27;63.96;84086.00;5086441;28;20028;-64
2023/04/20 02:11:05;;;;;;;8.27;2.92;;;;;;;-146.27;64.07;84065.91;5089749;28;20501;-64
2023/04/20 02:13:31;;;;;;;5.22;2.83;;;;;;;-146.27;64.25;84043.81;5092922;28;20024;-65
2023/04/20 02:15:56;;;;;;;5.63;3.05;;;;;;;-146.27;65.80;84059.88;5088973;28;20031;-64
2023/04/20 02:18:21;;;;;;;5.32;3.28;;;;;;;-146.27;65.54;84063.91;5084578;28;20086;-64
2023/04/20 02:20:47;;;;;;;4.95;3.17;;;;;;;-146.27;67.71;84035.75;5086090;28;20110;-63
2023/04/20 02:23:12;;;;;;;17.63;4.38;;;;;;;-146.27;67.67;84086.00;5086161;28;20102;-64
2023/04/20 02:25:38;;;;;;;4.53;3.45;;;;;;;-146.27;69.05;84049.84;5091486;28;20396;-64
2023/04/20 02:28:03;;;;;;;7.22;4.00;;;;;;;-146.27;69.16;84047.81;5090387;28;20031;-64
2023/04/20 02:30:29;;;;;;;5.07;3.22;;;;;;;-146.27;69.97;84069.94;5089183;28;20032;-64
2023/04/20 02:32:55;;;;;;;6.50;4.30;;;;;;;-146.27;70.71;84071.94;5089668;28;20026;-64
2023/04/20 02:35:20;;;;;;;5.95;4.10;;;;;;;-146.27;70.62;84031.75;5083367;28;20031;-65
2023/04/20 02:37:46;;;;;;;9.15;3.70;;;;;;;-146.27;71.09;84100.06;5091081;28;20077;-63
2023/04/20 02:40:12;;;;;;;5.60;3.90;;;;;;;-146.27;71.18;84067.91;5085549;28;20019;-64
2023/04/20 02:42:38;;;;;;;8.38;3.78;;;;;;;-146.27;71.18;84041.78;5085118;28;20035;-64
2023/04/20 02:45:03;;;;;;;9.43;4.65;;;;;;;-146.27;72.12;84051.84;5086111;28;20022;-64
2023/04/20 02:47:29;;;;;;;9.15;4.68;;;;;;;-146.27;72.08;84037.78;5090993;28;20078;-64
2023/04/20 02:49:54;;;;;;;5.75;4.05;;;;;;;-146.27;71.80;84090.03;5080267;28;20036;-64
2023/04/20 02:52:20;;;;;;;13.35;4.13;;;;;;;-146.27;72.96;84063.91;5089311;28;20082;-63
2023/04/20 02:54:46;;;;;;;7.93;4.50;;;;;;;-146.27;72.37;84047.81;5088967;28;20047;-65
2023/04/20 02:57:11;;;;;;;5.22;3.65;;;;;;;-146.27;73.46;83995.56;5087851;28;20062;-63
2023/04/20 02:59:37;;;;;;;7.82;3.70;;;;;;;-146.27;73.41;84059.88;5090425;28;20036;-64
2023/04/20 03:02:03;;;;;;;5.05;3.63;;;;;;;-146.27;73.51;84053.84;5084732;28;20143;-64
2023/04/20 03:04:29;;;;;;;6.93;3.72;;;;;;;-146.27;73.86;84114.13;5083337;28;20031;-64
2023/04/20 03:06:55;;;;;;;10.68;3.75;;;;;;;-146.27;73.73;84075.94;5089866;28;20062;-64
2023/04/20 03:09:21;;;;;;;7.18;3.88;;;;;;;-146.27;73.12;84053.84;5090393;28;20024;-64
2023/04/20 03:11:48;;;;;;;6.68;3.72;;;;;;;-146.27;73.69;84011.66;5090737;28;20032;-64
2023/04/20 03:14:13;;;;;;;5.35;3.10;;;;;;;-146.27;73.34;84051.84;5077307;28;20062;-63
2023/04/20 03:16:38;;;;;;;7.20;3.75;;;;;;;-146.27;73.95;84021.69;5078901;28;20549;-64
2023/04/20 03:19:04;;;;;;;5.05;3.35;;;;;;;-146.27;73.59;84043.81;5090727;28;20564;-64
2023/04/20 03:21:30;;;;;;;8.10;3.40;;;;;;;-146.27;73.65;84007.63;5085535;28;20024;-64
2023/04/20 03:23:55;;;;;;;4.70;3.35;;;;;;;-146.27;73.95;84007.63;5091113;28;20028;-64
2023/04/20 03:26:21;;;;;;;4.70;3.15;;;;;;;-146.27;75.23;84025.72;5083747;28;20056;-62
2023/04/20 03:28:51;;;;;;;9.00;4.03;;;;;;;-146.27;75.90;84031.75;5089993;28;20027;-64
2023/04/20 03:31:16;;;;;;;7.97;3.55;;;;;;;-146.27;76.41;84063.91;5090045;28;20131;-64
2023/04/20 03:33:41;;;;;;;6.97;2.88;;;;;;;-146.27;76.02;84035.75;5083521;28;20024;-64
2023/04/20 03:36:08;;;;;;;6.13;3.53;;;;;;;-146.27;76.99;84021.69;5085109;28;20032;-63
2023/04/20 03:38:33;;;;;;;7.85;3.60;;;;;;;-146.27;77.02;84067.91;5091298;28;20103;-64
2023/04/20 03:40:59;;;;;;;5.72;3.65;;;;;;;-146.27;77.33;83989.53;5088774;28;20112;-63
2023/04/20 03:43:24;;;;;;;4.60;3.08;;;;;;;-146.27;77.78;84015.66;5086003;28;20024;-65
2023/04/20 03:45:49;;;;;;;5.43;3.15;;;;;;;-146.27;77.92;83987.53;5082915;28;20039;-64
2023/04/20 03:48:15;;;;;;;6.88;3.22;;;;;;;-146.27;77.59;83979.50;5084092;28;20024;-64
2023/04/20 03:50:40;;;;;;;8.07;3.38;;;;;;;-146.27;78.33;83959.41;5087855;28;20035;-63
2023/04/20 03:53:06;;;;;;;4.85;3.30;;;;;;;-146.27;78.30;84009.63;5089666;28;20475;-64
2023/04/20 03:55:31;;;;;;;11.43;2.88;;;;;;;-146.27;78.60;83945.31;5090183;28;20230;-63
2023/04/20 03:57:56;;;;;;;5.30;2.60;;;;;;;-146.27;77.93;83951.34;5085954;28;20050;-63
2023/04/20 04:00:22;;;;;;;7.88;2.92;;;;;;;-146.27;78.58;83955.38;5094277;28;20498;-63
2023/04/20 04:02:47;;;;;;;5.15;3.03;;;;;;;-146.27;77.48;83939.31;5091697;28;20103;-63
2023/04/20 04:05:12;;;;;;;10.60;3.40;;;;;;;-146.27;77.72;84013.66;5087796;28;20052;-64
2023/04/20 04:07:38;;;;;;;5.93;3.10;;;;;;;-146.27;77.35;83917.19;5091105;28;20040;-64
2023/04/20 04:10:04;;;;;;;5.05;2.78;;;;;;;-146.27;77.19;83915.19;5091038;28;20029;-65
2023/04/20 04:12:30;;;;;;;4.72;3.47;;;;;;;-146.27;77.21;83921.22;5093863;28;20024;-65
2023/04/20 04:14:55;;;;;;;7.18;2.80;;;;;;;-146.27;77.37;83826.75;5094352;28;20078;-64
2023/04/20 04:17:20;;;;;;;5.53;2.75;;;;;;;-146.27;76.74;83925.22;5093103;28;20473;-64
2023/04/20 04:19:46;;;;;;;4.57;2.30;;;;;;;-146.27;76.72;83911.16;5091717;28;20437;-64
2023/04/20 04:22:11;;;;;;;4.35;2.20;;;;;;;-146.27;76.98;83907.16;5087902;28;20036;-63
2023/04/20 04:24:37;;;;;;;4.35;2.40;;;;;;;-146.27;76.94;83911.16;5092991;28;20052;-63
2023/04/20 04:27:04;;;;;;;6.65;2.53;;;;;;;-146.27;76.13;83879.00;5093024;28;20028;-64
2023/04/20 04:29:29;;;;;;;3.42;2.17;;;;;;;-146.27;76.82;83885.03;5082223;28;20032;-64
2023/04/20 04:31:55;;;;;;;5.57;2.28;;;;;;;-146.27;76.32;83921.22;5094370;28;20074;-65
2023/04/20 04:34:22;;;;;;;4.05;2.05;;;;;;;-146.27;76.19;83891.06;5091781;28;20026;-64
2023/04/20 04:36:48;;;;;;;3.83;2.10;;;;;;;-146.27;76.46;83862.94;5082743;28;20028;-63
2023/04/20 04:39:14;;;;;;;5.40;2.30;;;;;;;-146.27;75.38;83911.16;5091742;28;20081;-64
2023/04/20 04:41:39;;;;;;;3.65;2.10;;;;;;;-146.27;76.60;83854.91;5092090;28;20027;-64
2023/04/20 04:44:05;;;;;;;5.55;2.10;;;;;;;-146.27;76.92;83868.97;5083436;28;20376;-64
2023/04/20 04:46:31;;;;;;;5.80;1.90;;;;;;;-146.27;76.93;83860.94;5082509;28;20063;-65
2023/04/20 04:48:59;;;;;;;4.25;1.80;;;;;;;-146.27;76.85;83907.16;5083929;28;20028;-65
2023/04/20 04:51:25;;;;;;;6.00;2.30;;;;;;;-146.27;76.75;83883.03;5084466;28;20039;-63
2023/04/20 04:53:50;;;;;;;4.38;2.50;;;;;;;-146.27;76.81;83858.91;5086186;28;20028;-63
2023/04/20 04:56:17;;;;;;;3.67;1.70;;;;;;;-146.27;77.23;83858.91;5088734;28;20027;-64
2023/04/20 04:58:43;;;;;;;6.38;3.75;;;;;;;-146.27;77.59;83826.75;5080131;28;20632;-63
2023/04/20 05:01:08;;;;;;;4.45;2.10;;;;;;;-146.27;77.71;83883.03;5085883;28;20021;-64
2023/04/20 05:03:33;;;;;;;6.40;1.75;;;;;;;-146.27;77.56;83836.81;5086035;28;20422;-63
2023/04/20 05:05:59;;;;;;;6.15;2.40;;;;;;;-146.27;79.00;83828.78;5089710;28;20448;-65
2023/04/20 05:08:24;;;;;;;2.63;1.50;;;;;;;-146.27;78.63;83858.91;5085848;28;20484;-64
2023/04/20 05:10:50;;;;;;;4.25;1.58;;;;;;;-146.27;78.54;83866.97;5092708;28;20387;-64
2023/04/20 05:13:15;;;;;;;4.88;2.08;;;;;;;-146.27;78.17;83872.97;5090484;28;20047;-64
2023/04/20 05:15:40;;;;;;;4.30;1.92;;;;;;;-146.27;77.95;83864.94;5084384;28;20028;-64
2023/04/20 05:18:06;;;;;;;4.55;2.00;;;;;;;-146.27;78.47;83842.84;5091902;28;20027;-66
2023/04/20 05:20:31;;;;;;;5.25;1.65;;;;;;;-146.27;78.10;83830.78;5086396;28;20463;-65
2023/04/20 05:22:56;;;;;;;4.55;1.90;;;;;;;-146.27;77.45;83877.00;5083131;28;20023;-64
2023/04/20 05:25:22;;;;;;;4.72;1.80;;;;;;;-146.27;77.85;83852.88;5092983;28;20020;-66
2023/04/20 05:27:47;;;;;;;4.07;2.08;;;;;;;-146.27;78.13;83838.81;5093280;28;20032;-65
2023/04/20 05:30:13;;;;;;;7.35;1.83;;;;;;;-146.27;78.23;83828.78;5089870;28;20464;-66
2023/04/20 05:32:38;;;;;;;3.55;1.60;;;;;;;-146.27;77.89;83834.81;5089439;28;20020;-67
2023/04/20 05:35:04;;;;;;;5.65;1.70;;;;;;;-146.27;78.22;83875.00;5083694;28;20027;-66
2023/04/20 05:37:30;;;;;;;3.75;1.90;;;;;;;-146.27;79.41;83826.75;5083079;28;20028;-65
2023/04/20 05:39:56;;;;;;;4.38;1.67;;;;;;;-146.27;78.75;83836.81;5084289;28;20024;-66
2023/04/20 05:42:21;;;;;;;4.65;1.95;;;;;;;-146.27;79.23;83838.81;5084201;28;20081;-65
2023/04/20 05:44:52;;;;;;;6.97;1.83;;;;;;;-146.27;80.00;83840.84;5082862;28;20088;-65
2023/04/20 05:47:17;;;;;;;6.47;2.35;;;;;;;-146.27;79.53;83822.75;5087177;28;20039;-64
2023/04/20 05:49:44;;;;;;;5.95;1.88;;;;;;;-146.27;79.77;83802.66;5092495;28;20472;-63
2023/04/20 05:52:10;;;;;;;8.25;2.25;;;;;;;-146.27;80.28;83879.00;5084878;28;20047;-64
2023/04/20 05:54:35;;;;;;;5.70;2.08;;;;;;;-146.27;80.66;83828.78;5079364;28;20059;-64
2023/04/20 05:57:01;;;;;;;4.90;2.05;;;;;;;-146.27;80.64;83838.81;5089994;28;20411;-64
2023/04/20 05:59:26;;;;;;;4.30;2.03;;;;;;;-146.27;81.46;83798.63;5083141;28;20490;-66
2023/04/20 06:01:52;;;;;;;5.97;2.10;;;;;;;-146.27;81.43;83808.69;5084000;28;20027;-65
2023/04/20 06:04:17;;;;;;;4.38;2.00;;;;;;;-146.27;81.65;83814.72;5087086;28;20735;-65
2023/04/20 06:06:43;;;;;;;5.43;2.33;;;;;;;-146.27;81.41;83812.69;5084696;28;20460;-63
2023/04/20 06:09:08;;;;;;;8.43;2.08;;;;;;;-146.27;81.99;83818.72;5087275;28;20122;-64
2023/04/20 06:11:34;;;;;;;6.93;2.10;;;;;;;-146.27;81.24;83846.84;5088203;28;20036;-64
2023/04/20 06:14:01;;;;;;;6.38;1.90;;;;;;;-146.27;80.46;83826.75;5090861;28;20027;-65
2023/04/20 06:16:26;;;;;;;3.70;1.90;;;;;;;-146.27;79.58;83798.63;5088120;28;20391;-63
2023/04/20 06:18:51;;;;;;;6.90;2.72;;;;;;;-146.27;79.60;83786.56;5088791;28;20048;-64
2023/04/20 06:21:18;;;;;;;3.15;1.92;;;;;;;-146.27;77.74;83812.69;5088758;28;20058;-65
2023/04/20 06:23:43;;;;;;;2.72;2.22;;;;;;;-146.27;76.04;83812.69;5092338;28;20115;-65
2023/04/20 06:26:09;;;;;;;5.07;2.60;;;;;;;-146.27;75.87;83788.59;5088150;28;20548;-64
2023/04/20 06:28:36;;;;;;;8.07;2.03;;;;;;;-146.27;76.63;83784.56;5085631;28;20111;-64
2023/04/20 06:31:02;;;;;;;7.82;2.08;;;;;;;-146.27;78.84;83802.66;5091919;28;20386;-63
2023/04/20 06:33:28;;;;;;;4.72;2.20;;;;;;;-146.27;79.29;83792.59;5090043;28;20587;-65
2023/04/20 06:35:55;;;;;;;4.60;2.30;;;;;;;-146.27;77.57;83798.63;5089512;28;20035;-64
2023/04/20 06:38:21;;;;;;;3.65;2.35;;;;;;;-146.27;76.19;83776.53;5086923;28;20054;-67
2023/04/20 06:40:46;;;;;;;3.42;2.30;;;;;;;-146.27;76.46;83798.63;5071847;28;20028;-68
2023/04/20 06:43:11;;;;;;;5.30;2.22;;;;;;;-146.27;75.73;83814.72;5080012;28;20464;-68
2023/04/20 06:45:37;;;;;;;5.00;2.70;;;;;;;-146.27;75.74;83786.56;5082728;28;20472;-68
2023/04/20 06:48:02;;;;;;;4.38;2.47;;;;;;;-146.27;76.54;83826.75;5086445;28;20035;-67
2023/04/20 06:50:28;;;;;;;11.85;2.83;;;;;;;-146.27;76.99;83790.59;5091082;28;20028;-67
2023/04/20 06:52:55;;;;;;;5.22;2.33;;;;;;;-146.27;77.31;83786.56;5092373;28;20459;-67
2023/04/20 06:55:20;;;;;;;6.55;2.10;;;;;;;-146.27;78.40;83776.53;5090919;28;20023;-67
2023/04/20 06:57:46;;;;;;;4.40;2.40;;;;;;;-146.27;79.95;83840.84;5092303;28;20364;-68
2023/04/20 07:00:12;;;;;;;8.48;2.58;;;;;;;-146.27;85.04;83862.94;5085903;28;20456;-67
2023/04/20 07:02:45;;;;;;;7.13;2.97;;;;;;;-146.27;85.38;83858.91;5071698;28;20047;-66
2023/04/20 07:05:11;;;;;;;6.82;3.00;;;;;;;-146.27;85.04;83852.88;5085899;28;20380;-67
2023/04/20 07:07:37;;;;;;;7.65;2.47;;;;;;;-146.27;85.30;83850.88;5087838;28;20032;-67
2023/04/20 07:10:02;;;;;;;9.35;3.10;;;;;;;-146.27;84.89;83877.00;5088343;28;20024;-67
2023/04/20 07:12:28;;;;;;;4.18;2.42;;;;;;;-146.27;83.88;83879.00;5077802;28;20039;-67
2023/04/20 07:14:54;;;;;;;5.20;3.10;;;;;;;-146.27;83.58;83903.13;5071893;28;20024;-68
2023/04/20 07:17:19;;;;;;;7.03;2.55;;;;;;;-146.27;82.90;83879.00;5082403;28;20031;-69
2023/04/20 07:19:45;;;;;;;3.58;2.63;;;;;;;-146.27;84.48;83870.97;5086454;28;20123;-67
2023/04/20 07:22:10;;;;;;;5.82;3.38;;;;;;;-146.27;83.51;83879.00;5072961;28;20063;-68
2023/04/20 07:24:35;;;;;;;10.05;2.50;;;;;;;-146.27;81.74;83887.06;5089496;28;20035;-67
2023/04/20 07:27:01;;;;;;;15.73;2.88;;;;;;;-146.27;81.04;83891.06;5088273;28;20051;-66
2023/04/20 07:29:26;;;;;;;6.55;2.50;;;;;;;-146.27;80.29;83862.94;5094165;28;20404;-67
2023/04/20 07:31:52;;;;;;;6.65;2.55;;;;;;;-146.27;81.44;83872.97;5084754;28;20384;-66
2023/04/20 07:34:18;;;;;;;6.85;2.83;;;;;;;-146.27;80.72;83971.47;5095201;28;20096;-67
2023/04/20 07:36:43;;;;;;;3.67;2.53;;;;;;;-146.27;79.04;83868.97;5094040;28;20032;-68
2023/04/20 07:39:08;;;;;;;4.53;2.65;;;;;;;-146.27;78.42;83881.03;5095886;28;20032;-67
2023/04/20 07:41:35;;;;;;;9.38;2.40;;;;;;;-146.27;78.42;83895.09;5091530;28;20024;-67
2023/04/20 07:44:00;;;;;;;3.20;2.33;;;;;;;-146.27;78.21;83854.91;5091410;28;20039;-67
2023/04/20 07:46:27;;;;;;;3.72;2.50;;;;;;;-146.27;77.23;83870.97;5096103;28;20032;-68
2023/04/20 07:48:52;;;;;;;4.07;2.53;;;;;;;-146.27;77.78;83911.16;5095738;28;20447;-65
2023/04/20 07:51:18;;;;;;;6.57;2.47;;;;;;;-146.27;79.07;83870.97;5094620;28;20040;-67
2023/04/20 07:53:43;;;;;;;6.72;2.78;;;;;;;-146.27;83.01;83905.13;5084498;28;20024;-68
2023/04/20 07:56:09;;;;;;;13.18;3.17;;;;;;;-146.27;85.09;83923.22;5081865;28;20468;-66
2023/04/20 07:58:37;;;;;;;8.43;2.72;;;;;;;-146.27;88.47;83983.50;5085766;28;20033;-66
2023/04/20 08:01:02;;;;;;;4.93;2.67;;;;;;;-146.27;89.89;83895.09;5076579;28;20472;-68
2023/04/20 08:03:28;;;;;;;6.25;2.88;;;;;;;-146.27;92.07;84007.63;5081716;28;20357;-67
2023/04/20 08:05:53;;;;;;;5.82;3.17;;;;;;;-146.27;92.84;83967.44;5094461;28;20418;-65
2023/04/20 08:08:19;;;;;;;7.72;3.63;;;;;;;-146.27;95.90;84015.66;5092085;28;20047;-66
2023/04/20 08:10:44;;;;;;;6.70;3.63;;;;;;;-146.27;96.17;83987.53;5077613;28;20029;-66
2023/04/20 08:13:09;;;;;;;12.05;3.78;;;;;;;-146.27;96.44;84017.69;5080681;28;20487;-67
2023/04/20 08:15:35;;;;;;;11.00;3.42;;;;;;;-146.27;97.70;84013.66;5082457;28;20024;-65
2023/04/20 08:18:00;;;;;;;6.88;3.38;;;;;;;-146.27;98.86;84043.81;5088444;28;20522;-65
2023/04/20 08:20:25;;;;;;;9.65;3.40;;;;;;;-146.27;100.00;84029.72;5095171;28;20020;-66
2023/04/20 08:22:52;;;;;;;7.72;3.92;;;;;;;-146.27;100.00;84059.88;5087434;28;20031;-65
2023/04/20 08:25:17;;;;;;;8.18;3.78;;;;;;;-146.27;100.00;84043.81;5095371;28;20443;-67
2023/04/20 08:27:43;;;;;;;7.60;4.00;;;;;;;-146.27;100.00;84047.81;5078940;28;20052;-67
2023/04/20 08:30:09;;;;;;;7.40;4.22;;;;;;;-146.27;100.00;84021.69;5092413;28;20059;-66
2023/04/20 08:32:34;;;;;;;7.68;3.90;;;;;;;-146.27;100.00;84051.84;5079792;28;20029;-67
2023/04/20 08:35:00;;;;;;;8.38;3.58;;;;;;;-146.27;100.00;84043.81;5085433;28;20028;-66
2023/04/20 08:37:25;;;;;;;6.68;4.05;;;;;;;-146.27;100.00;84057.88;5094085;28;20782;-67
2023/04/20 08:39:51;;;;;;;10.75;3.83;;;;;;;-146.27;100.00;84077.97;5091499;28;20036;-66
2023/04/20 08:42:16;;;;;;;7.25;4.10;;;;;;;-146.27;100.00;84047.81;5076072;28;20027;-67
2023/04/20 08:44:42;;;;;;;7.70;3.80;;;;;;;-146.27;100.00;84108.09;5085385;28;20028;-67
2023/04/20 08:47:13;;;;;;;6.13;3.75;;;;;;;-146.27;100.00;84084.00;5080032;28;20029;-66
2023/04/20 08:49:38;;;;;;;6.20;3.80;;;;;;;-146.27;100.00;84104.09;5085691;28;20506;-67
2023/04/20 08:52:05;;;;;;;10.35;4.55;;;;;;;-146.27;100.00;84088.00;5094682;28;20056;-67
2023/04/20 08:54:30;;;;;;;8.98;4.50;;;;;;;-146.27;100.00;84039.78;5093765;28;20028;-67
2023/04/20 08:56:57;;;;;;;6.95;4.68;;;;;;;-146.27;100.00;84043.81;5091290;28;20035;-66
2023/04/20 08:59:22;;;;;;;11.80;5.45;;;;;;;-146.27;100.00;84079.97;5093126;28;20024;-66
2023/04/20 09:01:48;;;;;;;10.65;5.15;;;;;;;-146.27;100.00;84041.78;5088391;28;20530;-66
2023/04/20 09:04:16;;;;;;;10.73;5.82;;;;;;;-146.27;100.00;84063.91;5075185;28;20036;-66
2023/04/20 09:06:49;;;;;;;11.88;5.40;;;;;;;-146.27;100.00;84075.94;5073527;28;20047;-66
2023/04/20 09:09:15;;;;;;;10.80;5.28;;;;;;;-146.27;100.00;84075.94;5073276;28;20388;-67
2023/04/20 09:11:41;;;;;;;11.23;4.57;;;;;;;-146.27;100.00;84041.78;5093027;28;20600;-66
2023/04/20 09:14:09;;;;;;;14.63;5.00;;;;;;;-146.27;100.00;83983.50;5092774;28;20033;-66
2023/04/20 09:16:47;;;;;;;8.57;4.85;;;;;;;-146.27;100.00;84025.72;5089828;28;20483;-66
2023/04/20 09:19:13;;;;;;;10.32;4.72;;;;;;;-146.27;100.00;84088.00;5084545;28;20028;-65
2023/04/20 09:21:47;;;;;;;8.07;4.65;;;;;;;-146.27;100.00;84003.59;5093645;28;20028;-65
2023/04/20 09:24:14;;;;;;;8.57;4.00;;;;;;;-146.27;100.00;83979.50;5090821;28;20119;-67
2023/04/20 09:26:39;;;;;;;9.38;4.35;;;;;;;-146.27;100.00;84005.63;5075519;28;20402;-65
2023/04/20 09:29:15;;;;;;;7.75;4.38;;;;;;;-146.27;100.00;84015.66;5092877;28;20024;-67
2023/04/20 09:31:41;;;;;;;5.97;4.50;;;;;;;-146.27;100.00;84031.75;5094690;28;20016;-66
2023/04/20 09:34:06;;;;;;;5.70;3.85;;;;;;;-146.27;100.00;83985.53;5093531;28;20064;-66
2023/04/20 09:36:43;;;;;;;7.10;4.22;;;;;;;-146.27;100.00;83985.53;5090373;28;20024;-66
2023/04/20 09:39:10;;;;;;;11.35;4.10;;;;;;;-146.27;100.00;83987.53;5090128;28;20084;-65
2023/04/20 09:41:37;;;;;;;9.18;4.20;;;;;;;-146.27;100.00;83995.56;5086880;28;20082;-67
2023/04/20 09:44:03;;;;;;;5.78;3.65;;;;;;;-146.27;100.00;83997.56;5091576;28;20037;-66
2023/04/20 09:46:31;;;;;;;7.38;4.20;;;;;;;-146.27;100.00;84033.75;5093605;28;20081;-67
2023/04/20 09:48:59;;;;;;;7.90;4.30;;;;;;;-146.27;100.00;83991.56;5091910;28;20052;-66
2023/04/20 09:51:26;;;;;;;6.43;3.85;;;;;;;-146.27;100.00;84071.94;5089206;28;20104;-67
2023/04/20 09:53:54;;;;;;;6.15;4.07;;;;;;;-146.27;100.00;83973.47;5092804;28;20028;-66
2023/04/20 09:56:20;;;;;;;6.47;4.20;;;;;;;-146.27;100.00;83995.56;5088121;28;20012;-67
2023/04/20 09:58:46;;;;;;;5.97;4.25;;;;;;;-146.27;100.00;83995.56;5081378;28;20021;-66
2023/04/20 10:01:12;;;;;;;11.45;5.00;;;;;;;-146.27;100.00;83943.31;5071590;28;20036;-67
2023/04/20 10:03:41;;;;;;;5.90;4.07;;;;;;;-146.27;100.00;83959.41;5081319;28;20031;-68
2023/04/20 10:06:17;;;;;;;7.90;4.80;;;;;;;-146.27;100.00;83917.19;5083102;28;20058;-67
2023/04/20 10:08:43;;;;;;;6.78;4.22;;;;;;;-146.27;100.00;83927.25;5084077;28;20040;-66
2023/04/20 10:11:08;;;;;;;12.27;4.18;;;;;;;-146.27;100.00;83895.09;5089679;28;20495;-66
2023/04/20 10:13:34;;;;;;;12.18;4.47;;;;;;;-146.27;100.00;83903.13;5092155;28;20024;-67
2023/04/20 10:15:59;;;;;;;8.43;4.60;;;;;;;-146.27;100.00;83907.16;5082467;28;20034;-67
2023/04/20 10:18:25;;;;;;;8.43;5.07;;;;;;;-146.27;100.00;83903.13;5079528;28;20033;-66
2023/04/20 10:21:02;;;;;;;10.32;4.80;;;;;;;-146.27;100.00;83923.22;5085755;28;20032;-66
2023/04/20 10:23:28;;;;;;;7.57;4.25;;;;;;;-146.27;100.00;83816.72;5089962;28;20031;-67
2023/04/20 10:25:59;;;;;;;11.32;4.78;;;;;;;-146.27;100.00;83848.88;5089248;28;20032;-69
2023/04/20 10:28:36;;;;;;;6.82;4.78;;;;;;;-146.27;100.00;83860.94;5090380;28;20019;-68
2023/04/20 10:31:01;;;;;;;7.35;4.88;;;;;;;-146.27;100.00;83872.97;5081135;28;20070;-68
2023/04/20 10:33:27;;;;;;;6.60;4.63;;;;;;;-146.27;100.00;83872.97;5086540;28;20016;-68
2023/04/20 10:35:54;;;;;;;8.43;4.70;;;;;;;-146.27;100.00;83854.91;5085037;28;20024;-68
2023/04/20 10:38:33;;;;;;;7.00;4.88;;;;;;;-146.27;100.00;83846.84;5091581;28;20464;-69
2023/04/20 10:41:09;;;;;;;10.32;4.57;;;;;;;-146.27;100.00;83838.81;5089536;28;20484;-68
2023/04/20 10:43:34;;;;;;;6.82;4.18;;;;;;;-146.27;98.81;83826.75;5091550;28;20552;-69
2023/04/20 10:46:00;;;;;;;7.85;3.97;;;;;;;-146.27;97.89;83788.59;5080585;28;20047;-68
2023/04/20 10:48:25;;;;;;;8.27;4.07;;;;;;;-146.27;97.93;83818.72;5077203;28;20115;-68
2023/04/20 10:50:51;;;;;;;6.22;4.25;;;;;;;-146.27;96.19;83794.63;5080480;28;20031;-68
2023/04/20 10:53:21;;;;;;;8.43;4.20;;;;;;;-146.27;97.24;83776.53;5088515;28;20031;-68
2023/04/20 10:55:47;;;;;;;8.02;3.85;;;;;;;-146.27;95.44;83748.41;5072458;28;20108;-70
2023/04/20 10:58:23;;;;;;;7.55;4.30;;;;;;;-146.27;93.72;83750.41;5086400;28;20020;-68
2023/04/20 11:01:02;;;;;;;8.80;4.57;;;;;;;-146.27;96.05;83724.28;5083052;28;20036;-69
2023/04/20 11:03:29;;;;;;;8.40;4.22;;;;;;;-146.27;94.99;83738.34;5076632;28;20047;-69
2023/04/20 11:05:59;;;;;;;6.22;4.10;;;;;;;-146.27;97.63;83670.03;5090603;28;20391;-68
2023/04/20 11:08:38;;;;;;;7.47;4.85;;;;;;;-146.27;95.54;83571.56;5071700;28;20062;-70
2023/04/20 11:11:03;;;;;;;7.93;4.28;;;;;;;-146.27;93.09;83523.34;5073108;28;20467;-68